createdAt,value
2023-03-29T00:00:35.909Z,0.40
2023-03-29T00:01:42.033Z,0.30
2023-03-29T00:02:48.730Z,0.60
2023-03-29T00:03:52.013Z,0.60
2023-03-29T00:04:53.859Z,0.68
2023-03-29T00:06:03.219Z,0.40
2023-03-29T00:07:06.069Z,0.52
2023-03-29T00:08:09.153Z,0.40
2023-03-29T00:09:11.400Z,0.50
2023-03-29T00:10:13.367Z,0.30
2023-03-29T00:11:15.137Z,0.60
2023-03-29T00:12:17.496Z,0.45
2023-03-29T00:13:19.338Z,0.40
2023-03-29T00:14:21.249Z,0.50
2023-03-29T00:15:23.263Z,0.35
2023-03-29T00:16:25.353Z,0.68
2023-03-29T00:17:27.230Z,0.50
2023-03-29T00:18:29.067Z,0.35
2023-03-29T00:19:35.618Z,0.40
2023-03-29T00:20:37.725Z,0.60
2023-03-29T00:21:39.524Z,0.40
2023-03-29T00:22:46.824Z,0.45
2023-03-29T00:23:48.750Z,0.60
2023-03-29T00:24:54.246Z,0.50
2023-03-29T00:25:56.919Z,0.57
2023-03-29T00:26:58.715Z,0.60
2023-03-29T00:28:00.527Z,0.65
2023-03-29T00:29:02.367Z,0.60
2023-03-29T00:30:07.402Z,0.45
2023-03-29T00:31:14.839Z,0.50
2023-03-29T00:32:16.841Z,0.73
2023-03-29T00:33:20.685Z,0.50
2023-03-29T00:34:23.937Z,0.50
2023-03-29T00:35:25.795Z,0.60
2023-03-29T00:36:28.005Z,0.50
2023-03-29T00:37:32.611Z,0.47
2023-03-29T00:38:35.134Z,0.60
2023-03-29T00:39:37.185Z,0.60
2023-03-29T00:40:47.104Z,0.70
2023-03-29T00:41:50.385Z,0.60
2023-03-29T00:42:52.380Z,0.60
2023-03-29T00:44:02.833Z,0.50
2023-03-29T00:45:10.867Z,0.60
2023-03-29T00:46:13.569Z,0.60
2023-03-29T00:47:16.376Z,0.65
2023-03-29T00:48:27.283Z,0.73
2023-03-29T00:49:29.486Z,0.50
2023-03-29T00:50:51.787Z,0.80
2023-03-29T00:51:53.762Z,0.60
2023-03-29T00:53:21.873Z,0.50
2023-03-29T00:54:24.952Z,0.50
2023-03-29T00:55:32.511Z,0.60
2023-03-29T00:56:40.554Z,0.40
2023-03-29T00:57:46.518Z,0.40
2023-03-29T00:58:55.261Z,0.30
2023-03-29T00:59:59.129Z,0.57
2023-03-29T01:01:08.872Z,0.40
2023-03-29T01:02:11.551Z,0.40
2023-03-29T01:03:14.730Z,0.50
2023-03-29T01:04:40.689Z,0.40
2023-03-29T01:05:49.814Z,0.40
2023-03-29T01:07:23.383Z,0.47
2023-03-29T01:08:41.952Z,0.40
2023-03-29T01:09:48.554Z,0.22
2023-03-29T01:11:17.322Z,0.50
2023-03-29T01:12:32.770Z,0.40
2023-03-29T01:14:10.545Z,0.22
2023-03-29T01:15:17.593Z,0.38
2023-03-29T01:16:22.135Z,0.30
2023-03-29T01:17:25.621Z,0.50
2023-03-29T01:18:27.633Z,0.40
2023-03-29T01:19:34.729Z,0.40
2023-03-29T01:21:03.469Z,0.60
2023-03-29T01:22:29.719Z,0.47
2023-03-29T01:23:51.247Z,0.68
2023-03-29T01:25:07.144Z,0.70
2023-03-29T01:26:18.948Z,0.50
2023-03-29T01:27:58.232Z,0.50
2023-03-29T01:29:23.737Z,0.47
2023-03-29T01:30:37.375Z,0.50
2023-03-29T01:31:47.908Z,0.45
2023-03-29T01:32:55.654Z,0.70
2023-03-29T01:34:12.804Z,0.50
2023-03-29T01:35:42.585Z,0.57
2023-03-29T01:37:14.131Z,0.30
2023-03-29T01:38:23.473Z,0.30
2023-03-29T01:39:25.352Z,0.47
2023-03-29T01:40:28.408Z,0.60
2023-03-29T01:41:46.800Z,0.47
2023-03-29T01:43:25.005Z,0.40
2023-03-29T01:44:41.740Z,0.38
2023-03-29T01:45:54.470Z,0.35
2023-03-29T01:47:12.399Z,0.30
2023-03-29T01:48:44.208Z,0.40
2023-03-29T01:50:12.315Z,0.52
2023-03-29T01:51:31.696Z,0.50
2023-03-29T01:52:54.127Z,0.60
2023-03-29T01:54:08.010Z,0.50
2023-03-29T01:55:18.576Z,0.32
2023-03-29T01:56:24.911Z,0.40
2023-03-29T01:57:27.476Z,0.50
2023-03-29T01:58:34.009Z,0.40
2023-03-29T01:59:40.682Z,0.40
2023-03-29T02:00:43.897Z,0.30
2023-03-29T02:01:51.829Z,0.30
2023-03-29T02:03:00.247Z,0.57
2023-03-29T02:04:06.835Z,0.30
2023-03-29T02:05:10.297Z,0.40
2023-03-29T02:06:15.548Z,0.32
2023-03-29T02:07:22.480Z,0.30
2023-03-29T02:08:25.702Z,0.30
2023-03-29T02:09:29.894Z,0.30
2023-03-29T02:10:34.013Z,0.30
2023-03-29T02:11:36.306Z,0.40
2023-03-29T02:12:38.730Z,0.40
2023-03-29T02:13:41.065Z,0.40
2023-03-29T02:14:43.266Z,0.40
2023-03-29T02:15:48.471Z,0.45
2023-03-29T02:16:50.287Z,0.40
2023-03-29T02:17:53.086Z,0.50
2023-03-29T02:18:57.707Z,0.35
2023-03-29T02:20:14.581Z,0.40
2023-03-29T02:21:26.566Z,0.40
2023-03-29T02:22:39.630Z,0.40
2023-03-29T02:23:46.694Z,0.32
2023-03-29T02:24:51.188Z,0.32
2023-03-29T02:25:57.169Z,0.40
2023-03-29T02:27:01.394Z,0.40
2023-03-29T02:28:04.859Z,0.57
2023-03-29T02:29:06.763Z,0.30
2023-03-29T02:30:12.115Z,0.30
2023-03-29T02:31:40.335Z,0.30
2023-03-29T02:32:59.532Z,0.40
2023-03-29T02:34:04.906Z,0.30
2023-03-29T02:35:16.037Z,0.30
2023-03-29T02:36:40.339Z,0.30
2023-03-29T02:37:46.396Z,0.50
2023-03-29T02:38:48.626Z,0.40
2023-03-29T02:39:52.526Z,0.40
2023-03-29T02:40:56.033Z,0.43
2023-03-29T02:41:58.966Z,0.32
2023-03-29T02:43:03.164Z,0.52
2023-03-29T02:44:11.177Z,0.50
2023-03-29T02:45:17.237Z,0.20
2023-03-29T02:46:21.058Z,0.60
2023-03-29T02:47:46.561Z,0.38
2023-03-29T02:48:51.885Z,0.20
2023-03-29T02:49:54.147Z,0.43
2023-03-29T02:51:01.337Z,0.40
2023-03-29T02:52:12.451Z,0.40
2023-03-29T02:53:23.066Z,0.50
2023-03-29T02:54:30.001Z,0.40
2023-03-29T02:55:34.920Z,0.50
2023-03-29T02:56:45.008Z,0.63
2023-03-29T02:57:47.039Z,0.35
2023-03-29T02:58:48.852Z,0.80
2023-03-29T02:59:50.677Z,0.80
2023-03-29T03:00:53.606Z,0.60
2023-03-29T03:01:55.679Z,0.60
2023-03-29T03:03:01.928Z,0.70
2023-03-29T03:04:04.249Z,0.73
2023-03-29T03:05:06.485Z,0.55
2023-03-29T03:06:08.544Z,0.43
2023-03-29T03:07:10.543Z,0.40
2023-03-29T03:08:12.597Z,0.68
2023-03-29T03:09:14.767Z,0.50
2023-03-29T03:10:19.248Z,0.70
2023-03-29T03:11:22.701Z,0.40
2023-03-29T03:12:24.600Z,0.50
2023-03-29T03:13:26.427Z,0.40
2023-03-29T03:14:28.378Z,0.45
2023-03-29T03:15:35.844Z,0.70
2023-03-29T03:16:37.850Z,0.65
2023-03-29T03:17:40.515Z,0.52
2023-03-29T03:18:43.210Z,0.52
2023-03-29T03:19:45.033Z,0.52
2023-03-29T03:21:01.913Z,0.80
2023-03-29T03:22:06.085Z,0.50
2023-03-29T03:23:09.790Z,0.57
2023-03-29T03:24:12.587Z,0.90
2023-03-29T03:25:19.662Z,0.95
2023-03-29T03:26:24.919Z,0.50
2023-03-29T03:27:27.087Z,0.60
2023-03-29T03:28:28.911Z,0.60
2023-03-29T03:29:31.267Z,0.60
2023-03-29T03:30:59.170Z,0.98
2023-03-29T03:32:24.376Z,0.50
2023-03-29T03:33:55.361Z,0.52
2023-03-29T03:35:32.375Z,0.60
2023-03-29T03:36:35.632Z,0.80
2023-03-29T03:37:38.844Z,0.50
2023-03-29T03:38:44.115Z,0.60
2023-03-29T03:39:47.010Z,0.65
2023-03-29T03:40:56.866Z,0.70
2023-03-29T03:41:59.071Z,0.55
2023-03-29T03:43:01.825Z,0.70
2023-03-29T03:44:03.987Z,0.55
2023-03-29T03:45:08.444Z,0.40
2023-03-29T03:46:27.800Z,0.75
2023-03-29T03:47:31.381Z,0.70
2023-03-29T03:48:47.042Z,0.43
2023-03-29T03:49:56.690Z,0.90
2023-03-29T03:51:00.614Z,0.50
2023-03-29T03:52:08.771Z,0.68
2023-03-29T03:53:10.598Z,0.63
2023-03-29T03:54:38.953Z,0.50
2023-03-29T03:56:08.811Z,0.50
2023-03-29T03:57:20.054Z,0.60
2023-03-29T03:58:27.227Z,0.63
2023-03-29T03:59:29.510Z,0.40
2023-03-29T04:00:36.461Z,0.70
2023-03-29T04:01:56.779Z,0.57
2023-03-29T04:02:59.500Z,0.70
2023-03-29T04:04:02.073Z,0.80
2023-03-29T04:05:05.282Z,0.73
2023-03-29T04:06:11.301Z,0.65
2023-03-29T04:07:34.416Z,0.65
2023-03-29T04:08:56.832Z,0.95
2023-03-29T04:10:24.778Z,0.88
2023-03-29T04:11:46.989Z,0.80
2023-03-29T04:12:49.112Z,0.52
2023-03-29T04:13:50.902Z,0.73
2023-03-29T04:15:10.577Z,0.80
2023-03-29T04:16:15.528Z,0.65
2023-03-29T04:17:17.582Z,0.70
2023-03-29T04:18:45.748Z,0.80
2023-03-29T04:19:47.775Z,0.90
2023-03-29T04:20:50.228Z,0.70
2023-03-29T04:21:54.676Z,1.00
2023-03-29T04:22:56.584Z,0.73
2023-03-29T04:23:58.909Z,0.70
2023-03-29T04:25:01.149Z,0.63
2023-03-29T04:26:29.293Z,0.77
2023-03-29T04:27:37.505Z,0.80
2023-03-29T04:28:46.598Z,1.25
2023-03-29T04:29:53.166Z,1.10
2023-03-29T04:31:03.467Z,1.13
2023-03-29T04:32:20.463Z,0.93
2023-03-29T04:33:31.097Z,0.63
2023-03-29T04:34:35.735Z,1.02
2023-03-29T04:35:39.977Z,0.80
2023-03-29T04:36:45.876Z,0.60
2023-03-29T04:37:54.706Z,1.05
2023-03-29T04:39:01.474Z,0.90
2023-03-29T04:40:04.929Z,0.60
2023-03-29T04:41:20.245Z,0.60
2023-03-29T04:42:51.764Z,0.43
2023-03-29T04:43:56.223Z,0.60
2023-03-29T04:45:01.117Z,0.80
2023-03-29T04:46:22.053Z,0.63
2023-03-29T04:47:45.337Z,1.38
2023-03-29T04:48:52.218Z,0.88
2023-03-29T04:50:03.402Z,0.77
2023-03-29T04:51:12.800Z,0.93
2023-03-29T04:52:15.403Z,0.90
2023-03-29T04:53:18.452Z,1.05
2023-03-29T04:54:21.297Z,1.00
2023-03-29T04:55:50.743Z,0.90
2023-03-29T04:57:02.128Z,1.17
2023-03-29T04:58:39.473Z,1.10
2023-03-29T04:59:41.513Z,0.90
2023-03-29T05:01:06.523Z,0.70
2023-03-29T05:02:16.360Z,1.52
2023-03-29T05:03:22.132Z,1.02
2023-03-29T05:04:33.352Z,0.90
2023-03-29T05:05:44.454Z,0.80
2023-03-29T05:06:46.979Z,0.82
2023-03-29T05:07:48.807Z,0.85
2023-03-29T05:08:54.464Z,0.80
2023-03-29T05:10:15.572Z,0.90
2023-03-29T05:11:17.692Z,0.98
2023-03-29T05:12:19.611Z,0.93
2023-03-29T05:13:27.100Z,0.88
2023-03-29T05:14:29.037Z,1.20
2023-03-29T05:15:31.536Z,0.80
2023-03-29T05:16:34.668Z,1.05
2023-03-29T05:17:36.672Z,1.13
2023-03-29T05:18:43.615Z,1.33
2023-03-29T05:19:46.810Z,1.35
2023-03-29T05:20:53.156Z,1.05
2023-03-29T05:21:56.392Z,1.10
2023-03-29T05:22:59.827Z,1.10
2023-03-29T05:24:24.591Z,1.40
2023-03-29T05:25:33.605Z,1.27
2023-03-29T05:26:35.631Z,0.95
2023-03-29T05:27:38.573Z,1.15
2023-03-29T05:28:43.963Z,0.93
2023-03-29T05:29:46.718Z,1.45
2023-03-29T05:31:07.111Z,1.02
2023-03-29T05:32:11.669Z,1.38
2023-03-29T05:33:13.780Z,1.15
2023-03-29T05:34:15.656Z,1.23
2023-03-29T05:35:23.666Z,0.95
2023-03-29T05:36:25.848Z,1.00
2023-03-29T05:37:28.677Z,1.73
2023-03-29T05:38:34.772Z,1.17
2023-03-29T05:39:38.136Z,1.45
2023-03-29T05:40:41.558Z,1.48
2023-03-29T05:42:06.488Z,2.38
2023-03-29T05:43:20.156Z,1.88
2023-03-29T05:44:22.354Z,1.85
2023-03-29T05:45:29.996Z,1.73
2023-03-29T05:46:32.108Z,1.60
2023-03-29T05:47:37.508Z,2.33
2023-03-29T05:48:40.545Z,1.75
2023-03-29T05:49:42.660Z,1.60
2023-03-29T05:50:53.548Z,2.17
2023-03-29T05:51:58.712Z,1.98
2023-03-29T05:53:02.073Z,1.45
2023-03-29T05:54:04.086Z,1.73
2023-03-29T05:55:06.371Z,1.73
2023-03-29T05:56:10.813Z,2.05
2023-03-29T05:57:12.887Z,2.15
2023-03-29T05:58:18.066Z,1.70
2023-03-29T05:59:20.681Z,1.58
2023-03-29T06:00:26.817Z,1.73
2023-03-29T06:01:41.869Z,1.40
2023-03-29T06:02:45.842Z,1.98
2023-03-29T06:03:48.134Z,1.80
2023-03-29T06:04:52.257Z,1.90
2023-03-29T06:06:16.694Z,2.03
2023-03-29T06:07:18.723Z,2.10
2023-03-29T06:08:36.682Z,1.75
2023-03-29T06:09:49.338Z,1.67
2023-03-29T06:11:04.628Z,1.80
2023-03-29T06:12:26.220Z,1.73
2023-03-29T06:13:37.304Z,1.80
2023-03-29T06:14:40.219Z,1.70
2023-03-29T06:15:53.765Z,1.40
2023-03-29T06:16:56.624Z,1.73
2023-03-29T06:17:59.321Z,1.60
2023-03-29T06:19:01.482Z,1.33
2023-03-29T06:20:10.677Z,1.52
2023-03-29T06:21:14.471Z,1.88
2023-03-29T06:22:16.328Z,1.48
2023-03-29T06:23:20.327Z,1.38
2023-03-29T06:24:22.459Z,2.20
2023-03-29T06:25:30.285Z,1.60
2023-03-29T06:26:33.070Z,2.00
2023-03-29T06:27:35.412Z,1.95
2023-03-29T06:28:37.427Z,1.65
2023-03-29T06:29:39.606Z,1.95
2023-03-29T06:30:43.704Z,2.20
2023-03-29T06:31:46.333Z,2.35
2023-03-29T06:33:09.251Z,2.08
2023-03-29T06:34:25.900Z,2.55
2023-03-29T06:35:48.638Z,2.25
2023-03-29T06:36:55.027Z,1.45
2023-03-29T06:37:57.123Z,2.28
2023-03-29T06:39:26.387Z,1.60
2023-03-29T06:40:45.620Z,1.80
2023-03-29T06:41:48.019Z,1.58
2023-03-29T06:43:13.066Z,1.80
2023-03-29T06:44:42.149Z,1.50
2023-03-29T06:45:54.928Z,1.73
2023-03-29T06:47:06.237Z,2.05
2023-03-29T06:48:08.841Z,2.22
2023-03-29T06:49:12.013Z,1.98
2023-03-29T06:50:24.535Z,2.08
2023-03-29T06:51:47.033Z,1.52
2023-03-29T06:52:49.867Z,1.85
2023-03-29T06:53:52.108Z,1.85
2023-03-29T06:54:54.125Z,1.75
2023-03-29T06:56:05.239Z,1.65
2023-03-29T06:57:16.096Z,1.83
2023-03-29T06:58:17.990Z,1.15
2023-03-29T06:59:19.825Z,1.25
2023-03-29T07:00:35.880Z,1.23
2023-03-29T07:01:54.106Z,1.60
2023-03-29T07:03:20.239Z,1.13
2023-03-29T07:04:25.188Z,0.95
2023-03-29T07:05:44.974Z,1.05
2023-03-29T07:07:01.351Z,0.95
2023-03-29T07:08:05.856Z,0.73
2023-03-29T07:09:31.377Z,1.42
2023-03-29T07:10:59.643Z,1.13
2023-03-29T07:12:09.020Z,1.00
2023-03-29T07:13:13.372Z,1.30
2023-03-29T07:14:15.747Z,1.23
2023-03-29T07:15:17.908Z,1.15
2023-03-29T07:16:56.068Z,1.05
2023-03-29T07:18:05.032Z,1.20
2023-03-29T07:19:09.513Z,1.00
2023-03-29T07:20:33.803Z,1.42
2023-03-29T07:21:42.608Z,0.98
2023-03-29T07:22:47.149Z,0.88
2023-03-29T07:23:49.574Z,1.00
2023-03-29T07:24:51.463Z,1.15
2023-03-29T07:25:54.143Z,1.08
2023-03-29T07:27:04.249Z,0.90
2023-03-29T07:28:07.885Z,1.15
2023-03-29T07:29:09.798Z,0.70
2023-03-29T07:30:18.088Z,1.05
2023-03-29T07:31:20.043Z,1.10
2023-03-29T07:32:31.322Z,0.80
2023-03-29T07:34:12.062Z,1.00
2023-03-29T07:35:15.227Z,0.88
2023-03-29T07:36:17.076Z,1.10
2023-03-29T07:37:18.875Z,0.80
2023-03-29T07:38:21.555Z,0.95
2023-03-29T07:39:31.058Z,1.00
2023-03-29T07:40:59.902Z,0.60
2023-03-29T07:42:19.789Z,0.77
2023-03-29T07:43:21.984Z,0.70
2023-03-29T07:44:23.965Z,0.70
2023-03-29T07:45:29.113Z,1.15
2023-03-29T07:46:47.564Z,1.40
2023-03-29T07:47:54.060Z,1.60
2023-03-29T07:48:56.793Z,1.02
2023-03-29T07:49:59.305Z,0.95
2023-03-29T07:51:01.994Z,1.42
2023-03-29T07:52:09.251Z,1.42
2023-03-29T07:53:11.237Z,1.27
2023-03-29T07:54:13.125Z,1.15
2023-03-29T07:55:22.739Z,1.17
2023-03-29T07:56:37.327Z,1.58
2023-03-29T07:57:49.633Z,1.17
2023-03-29T07:58:52.274Z,1.20
2023-03-29T07:59:54.814Z,0.82
2023-03-29T08:01:01.922Z,1.40
2023-03-29T08:02:27.451Z,1.08
2023-03-29T08:03:32.273Z,0.80
2023-03-29T08:04:34.755Z,1.20
2023-03-29T08:05:56.917Z,1.05
2023-03-29T08:06:59.475Z,1.05
2023-03-29T08:08:14.305Z,1.02
2023-03-29T08:09:29.306Z,0.88
2023-03-29T08:10:31.662Z,1.33
2023-03-29T08:11:40.962Z,1.00
2023-03-29T08:12:52.464Z,0.93
2023-03-29T08:14:00.107Z,0.98
2023-03-29T08:15:02.317Z,1.10
2023-03-29T08:16:08.877Z,1.40
2023-03-29T08:17:15.939Z,0.68
2023-03-29T08:18:22.388Z,1.55
2023-03-29T08:19:24.491Z,1.10
2023-03-29T08:20:35.510Z,1.10
2023-03-29T08:21:39.356Z,1.55
2023-03-29T08:22:42.246Z,0.95
2023-03-29T08:24:04.559Z,0.90
2023-03-29T08:25:18.595Z,0.80
2023-03-29T08:26:24.399Z,0.90
2023-03-29T08:27:26.717Z,0.80
2023-03-29T08:28:29.197Z,0.75
2023-03-29T08:29:31.368Z,0.80
2023-03-29T08:30:34.097Z,0.80
2023-03-29T08:31:38.034Z,0.60
2023-03-29T08:32:40.046Z,0.70
2023-03-29T08:33:44.346Z,0.57
2023-03-29T08:35:18.594Z,0.75
2023-03-29T08:36:39.033Z,0.60
2023-03-29T08:37:47.818Z,0.63
2023-03-29T08:38:51.549Z,0.70
2023-03-29T08:39:53.725Z,0.82
2023-03-29T08:41:41.719Z,0.70
2023-03-29T08:43:28.629Z,0.75
2023-03-29T08:45:26.869Z,1.10
2023-03-29T08:46:42.998Z,1.25
2023-03-29T08:48:26.777Z,1.63
2023-03-29T08:49:30.919Z,0.90
2023-03-29T08:50:38.219Z,0.88
2023-03-29T08:51:46.022Z,0.85
2023-03-29T08:53:00.678Z,1.10
2023-03-29T08:54:47.504Z,1.02
2023-03-29T08:56:20.734Z,0.80
2023-03-29T08:57:48.802Z,0.60
2023-03-29T08:59:01.736Z,0.70
2023-03-29T09:00:14.420Z,0.60
2023-03-29T09:01:16.255Z,0.70
2023-03-29T09:02:34.194Z,1.00
2023-03-29T09:03:48.309Z,0.80
2023-03-29T09:05:20.520Z,0.82
2023-03-29T09:06:55.333Z,0.70
2023-03-29T09:08:02.033Z,0.70
2023-03-29T09:09:03.993Z,0.80
2023-03-29T09:10:06.191Z,1.27
2023-03-29T09:11:24.509Z,0.52
2023-03-29T09:12:58.809Z,0.60
2023-03-29T09:14:10.339Z,0.73
2023-03-29T09:15:27.877Z,0.77
2023-03-29T09:17:27.367Z,1.10
2023-03-29T09:18:34.950Z,0.90
2023-03-29T09:19:43.139Z,0.90
2023-03-29T09:20:51.533Z,0.80
2023-03-29T09:22:16.186Z,0.73
2023-03-29T09:23:55.786Z,0.57
2023-03-29T09:25:57.479Z,0.60
2023-03-29T09:27:19.831Z,0.70
2023-03-29T09:28:47.605Z,0.70
2023-03-29T09:30:12.482Z,0.50
2023-03-29T09:31:48.648Z,0.70
2023-03-29T09:33:03.445Z,0.45
2023-03-29T09:34:34.678Z,0.50
2023-03-29T09:36:07.027Z,0.80
2023-03-29T09:37:28.840Z,0.90
2023-03-29T09:38:32.155Z,0.50
2023-03-29T09:39:34.200Z,0.50
2023-03-29T09:40:56.671Z,0.40
2023-03-29T09:41:59.782Z,0.43
2023-03-29T09:43:04.305Z,0.38
2023-03-29T09:44:29.763Z,0.43
2023-03-29T09:45:39.389Z,1.02
2023-03-29T09:46:47.632Z,0.50
2023-03-29T09:48:07.984Z,0.60
2023-03-29T09:49:17.728Z,0.40
2023-03-29T09:50:31.573Z,0.60
2023-03-29T09:51:37.562Z,0.88
2023-03-29T09:52:39.796Z,0.70
2023-03-29T09:53:49.602Z,0.52
2023-03-29T09:55:31.112Z,0.50
2023-03-29T09:56:56.013Z,0.70
2023-03-29T09:58:25.050Z,0.63
2023-03-29T09:59:29.150Z,0.50
2023-03-29T10:00:31.041Z,0.60
2023-03-29T10:01:45.626Z,0.50
2023-03-29T10:02:53.921Z,0.50
2023-03-29T10:04:01.962Z,0.50
2023-03-29T10:05:06.365Z,0.95
2023-03-29T10:06:11.279Z,0.40
2023-03-29T10:07:20.778Z,0.60
2023-03-29T10:08:36.844Z,0.50
2023-03-29T10:09:42.475Z,1.00
2023-03-29T10:10:51.600Z,0.82
2023-03-29T10:12:02.329Z,0.57
2023-03-29T10:13:07.245Z,0.80
2023-03-29T10:14:23.055Z,0.80
2023-03-29T10:15:30.377Z,0.85
2023-03-29T10:16:46.416Z,0.80
2023-03-29T10:17:48.921Z,0.90
2023-03-29T10:18:51.147Z,0.73
2023-03-29T10:19:57.838Z,0.63
2023-03-29T10:21:02.555Z,1.00
2023-03-29T10:22:07.953Z,0.50
2023-03-29T10:23:18.528Z,0.75
2023-03-29T10:24:25.980Z,0.55
2023-03-29T10:25:31.408Z,0.63
2023-03-29T10:26:34.495Z,0.60
2023-03-29T10:27:36.487Z,0.40
2023-03-29T10:28:38.842Z,0.60
2023-03-29T10:29:42.586Z,0.75
2023-03-29T10:30:52.512Z,0.70
2023-03-29T10:31:54.998Z,0.50
2023-03-29T10:32:59.861Z,0.40
2023-03-29T10:34:06.563Z,0.60
2023-03-29T10:35:24.180Z,0.40
2023-03-29T10:36:27.563Z,0.40
2023-03-29T10:37:29.517Z,0.45
2023-03-29T10:38:32.073Z,0.57
2023-03-29T10:39:35.069Z,0.40
2023-03-29T10:40:45.120Z,0.20
2023-03-29T10:41:52.537Z,0.50
2023-03-29T10:42:59.433Z,0.65
2023-03-29T10:44:02.339Z,0.47
2023-03-29T10:45:04.405Z,0.68
2023-03-29T10:46:09.327Z,0.60
2023-03-29T10:47:20.311Z,0.35
2023-03-29T10:48:29.959Z,0.40
2023-03-29T10:49:41.149Z,0.55
2023-03-29T10:50:43.202Z,0.65
2023-03-29T10:51:47.001Z,0.40
2023-03-29T10:52:50.481Z,0.40
2023-03-29T10:53:52.281Z,0.52
2023-03-29T10:54:56.345Z,0.73
2023-03-29T10:56:23.055Z,0.43
2023-03-29T10:57:44.686Z,0.50
2023-03-29T10:59:11.095Z,0.52
2023-03-29T11:00:29.415Z,0.40
2023-03-29T11:01:42.639Z,0.50
2023-03-29T11:03:07.586Z,0.38
2023-03-29T11:04:30.025Z,0.30
2023-03-29T11:05:49.984Z,0.60
2023-03-29T11:07:00.718Z,0.40
2023-03-29T11:08:20.754Z,0.40
2023-03-29T11:09:34.591Z,0.40
2023-03-29T11:10:50.879Z,0.38
2023-03-29T11:12:16.552Z,0.57
2023-03-29T11:13:27.874Z,0.50
2023-03-29T11:14:50.604Z,0.52
2023-03-29T11:15:52.360Z,0.35
2023-03-29T11:17:38.618Z,0.32
2023-03-29T11:18:43.662Z,0.60
2023-03-29T11:20:20.309Z,0.43
2023-03-29T11:21:34.156Z,0.52
2023-03-29T11:22:47.816Z,0.40
2023-03-29T11:24:00.316Z,0.20
2023-03-29T11:25:32.225Z,0.52
2023-03-29T11:26:36.778Z,0.40
2023-03-29T11:28:03.918Z,0.50
2023-03-29T11:29:23.443Z,0.38
2023-03-29T11:30:42.449Z,0.45
2023-03-29T11:31:58.946Z,0.47
2023-03-29T11:33:25.262Z,0.50
2023-03-29T11:35:00.225Z,0.45
2023-03-29T11:36:09.379Z,0.40
2023-03-29T11:37:37.387Z,0.50
2023-03-29T11:38:55.723Z,0.30
2023-03-29T11:40:05.851Z,0.47
2023-03-29T11:41:26.708Z,0.60
2023-03-29T11:42:33.233Z,0.47
2023-03-29T11:43:44.428Z,0.40
2023-03-29T11:44:49.049Z,0.38
2023-03-29T11:45:56.014Z,0.25
2023-03-29T11:46:58.710Z,0.47
2023-03-29T11:48:05.446Z,0.30
2023-03-29T11:49:59.875Z,0.60
2023-03-29T11:51:09.803Z,0.35
2023-03-29T11:52:20.401Z,0.60
2023-03-29T11:53:57.217Z,0.55
2023-03-29T11:55:04.394Z,0.43
2023-03-29T11:56:14.470Z,0.50
2023-03-29T11:57:27.888Z,0.40
2023-03-29T11:58:36.649Z,0.30
2023-03-29T11:59:53.584Z,0.30
2023-03-29T12:01:01.877Z,0.32
2023-03-29T12:02:23.703Z,0.35
2023-03-29T12:03:57.455Z,0.40
2023-03-29T12:05:05.578Z,0.35
2023-03-29T12:06:36.153Z,0.30
2023-03-29T12:07:46.842Z,0.38
2023-03-29T12:08:58.941Z,0.40
2023-03-29T12:10:07.175Z,0.32
2023-03-29T12:11:19.796Z,0.20
2023-03-29T12:12:45.730Z,0.30
2023-03-29T12:13:56.420Z,0.20
2023-03-29T12:15:07.072Z,0.38
2023-03-29T12:16:34.602Z,0.40
2023-03-29T12:17:43.508Z,0.28
2023-03-29T12:18:49.950Z,0.30
2023-03-29T12:20:07.002Z,0.30
2023-03-29T12:21:18.931Z,0.50
2023-03-29T12:22:22.642Z,0.30
2023-03-29T12:23:24.599Z,0.35
2023-03-29T12:24:31.857Z,0.50
2023-03-29T12:26:12.008Z,0.32
2023-03-29T12:27:22.784Z,0.28
2023-03-29T12:28:36.790Z,0.40
2023-03-29T12:29:41.188Z,0.32
2023-03-29T12:30:50.932Z,0.60
2023-03-29T12:32:17.372Z,0.22
2023-03-29T12:33:49.256Z,0.30
2023-03-29T12:35:17.096Z,0.50
2023-03-29T12:36:39.082Z,0.32
2023-03-29T12:38:05.214Z,0.38
2023-03-29T12:39:28.915Z,0.55
2023-03-29T12:40:57.204Z,0.40
2023-03-29T12:42:21.087Z,0.35
2023-03-29T12:44:03.513Z,0.40
2023-03-29T12:45:37.366Z,0.40
2023-03-29T12:46:40.555Z,0.32
2023-03-29T12:47:45.646Z,0.30
2023-03-29T12:48:51.168Z,0.40
2023-03-29T12:49:58.610Z,0.40
2023-03-29T12:51:07.838Z,0.30
2023-03-29T12:52:27.059Z,0.40
2023-03-29T12:53:35.769Z,0.50
2023-03-29T12:54:37.885Z,0.40
2023-03-29T12:55:42.541Z,0.40
2023-03-29T12:57:23.172Z,0.50
2023-03-29T12:58:40.481Z,0.20
2023-03-29T12:59:48.443Z,0.20
2023-03-29T13:01:05.773Z,0.30
2023-03-29T13:02:14.165Z,0.28
2023-03-29T13:03:28.658Z,0.30
2023-03-29T13:04:55.810Z,0.30
2023-03-29T13:06:10.284Z,0.38
2023-03-29T13:07:26.388Z,0.22
2023-03-29T13:08:35.313Z,0.25
2023-03-29T13:09:56.526Z,0.20
2023-03-29T13:10:58.909Z,0.30
2023-03-29T13:12:15.904Z,0.45
2023-03-29T13:13:21.637Z,0.20
2023-03-29T13:14:30.075Z,0.20
2023-03-29T13:15:34.612Z,0.30
2023-03-29T13:16:37.056Z,0.32
2023-03-29T13:18:02.737Z,0.20
2023-03-29T13:19:20.017Z,0.40
2023-03-29T13:20:32.971Z,0.30
2023-03-29T13:22:00.582Z,0.40
2023-03-29T13:23:02.437Z,0.22
2023-03-29T13:24:44.561Z,0.30
2023-03-29T13:26:19.205Z,0.30
2023-03-29T13:27:54.477Z,0.30
2023-03-29T13:29:12.724Z,0.20
2023-03-29T13:30:28.502Z,0.30
2023-03-29T13:31:56.463Z,0.30
2023-03-29T13:33:26.232Z,0.20
2023-03-29T13:34:37.822Z,0.40
2023-03-29T13:35:47.295Z,0.30
2023-03-29T13:37:13.352Z,0.22
2023-03-29T13:38:19.654Z,0.40
2023-03-29T13:39:28.076Z,0.35
2023-03-29T13:40:29.955Z,0.20
2023-03-29T13:41:39.223Z,0.20
2023-03-29T13:42:41.962Z,0.40
2023-03-29T13:43:44.619Z,0.30
2023-03-29T13:44:49.237Z,0.32
2023-03-29T13:45:57.410Z,0.35
2023-03-29T13:47:30.433Z,0.40
2023-03-29T13:48:35.318Z,0.40
2023-03-29T13:49:38.203Z,0.22
2023-03-29T13:50:53.344Z,0.32
2023-03-29T13:52:17.058Z,0.35
2023-03-29T13:53:30.952Z,0.30
2023-03-29T13:54:39.538Z,0.25
2023-03-29T13:55:48.148Z,0.40
2023-03-29T13:57:02.153Z,0.43
2023-03-29T13:58:10.418Z,0.30
2023-03-29T13:59:15.513Z,0.50
2023-03-29T14:00:23.830Z,0.30
2023-03-29T14:01:36.488Z,0.40
2023-03-29T14:02:48.776Z,0.47
2023-03-29T14:03:52.938Z,0.20
2023-03-29T14:04:56.290Z,0.30
2023-03-29T14:06:01.471Z,0.38
2023-03-29T14:07:06.870Z,0.30
2023-03-29T14:08:17.693Z,0.40
2023-03-29T14:09:23.370Z,0.40
2023-03-29T14:10:37.972Z,0.40
2023-03-29T14:11:45.711Z,0.40
2023-03-29T14:12:48.795Z,0.52
2023-03-29T14:13:59.420Z,0.30
2023-03-29T14:15:04.873Z,0.30
2023-03-29T14:16:10.941Z,0.32
2023-03-29T14:17:21.780Z,0.47
2023-03-29T14:18:25.741Z,0.47
2023-03-29T14:19:33.079Z,0.30
2023-03-29T14:20:34.956Z,0.60
2023-03-29T14:21:37.633Z,0.57
2023-03-29T14:22:43.947Z,0.52
2023-03-29T14:23:47.856Z,0.50
2023-03-29T14:24:54.617Z,0.52
2023-03-29T14:26:08.008Z,0.40
2023-03-29T14:27:12.249Z,0.40
2023-03-29T14:28:26.000Z,0.60
2023-03-29T14:29:31.852Z,0.55
2023-03-29T14:30:33.623Z,0.47
2023-03-29T14:31:38.176Z,0.45
2023-03-29T14:32:40.255Z,0.47
2023-03-29T14:33:42.553Z,0.38
2023-03-29T14:34:48.403Z,0.60
2023-03-29T14:35:50.624Z,0.43
2023-03-29T14:36:54.240Z,0.80
2023-03-29T14:37:56.618Z,0.60
2023-03-29T14:39:02.873Z,0.75
2023-03-29T14:40:09.028Z,0.57
2023-03-29T14:41:10.988Z,0.60
2023-03-29T14:42:17.776Z,0.55
2023-03-29T14:43:24.504Z,0.60
2023-03-29T14:44:31.891Z,0.55
2023-03-29T14:45:34.193Z,0.40
2023-03-29T14:46:36.964Z,0.50
2023-03-29T14:47:40.609Z,0.35
2023-03-29T14:48:43.505Z,0.52
2023-03-29T14:49:45.687Z,0.32
2023-03-29T14:50:48.105Z,0.45
2023-03-29T14:51:51.085Z,0.70
2023-03-29T14:52:53.820Z,0.90
2023-03-29T14:53:57.522Z,0.60
2023-03-29T14:55:01.928Z,0.60
2023-03-29T14:56:05.171Z,0.60
2023-03-29T14:57:08.045Z,0.60
2023-03-29T14:58:27.494Z,0.55
2023-03-29T14:59:36.960Z,0.50
2023-03-29T15:00:42.550Z,0.50
2023-03-29T15:01:44.844Z,0.55
2023-03-29T15:02:55.405Z,0.60
2023-03-29T15:04:04.992Z,0.77
2023-03-29T15:05:25.786Z,0.95
2023-03-29T15:06:29.251Z,0.47
2023-03-29T15:07:33.850Z,0.80
2023-03-29T15:08:38.217Z,0.70
2023-03-29T15:09:40.779Z,0.63
2023-03-29T15:10:44.917Z,0.50
2023-03-29T15:11:55.138Z,0.50
2023-03-29T15:12:57.301Z,0.50
2023-03-29T15:14:08.706Z,0.50
2023-03-29T15:15:13.298Z,0.50
2023-03-29T15:16:19.310Z,0.52
2023-03-29T15:17:50.458Z,1.08
2023-03-29T15:18:54.022Z,0.63
2023-03-29T15:20:21.415Z,0.82
2023-03-29T15:21:26.762Z,0.60
2023-03-29T15:22:33.575Z,0.38
2023-03-29T15:23:39.111Z,0.57
2023-03-29T15:24:47.730Z,0.70
2023-03-29T15:25:54.143Z,0.50
2023-03-29T15:27:03.112Z,0.50
2023-03-29T15:28:05.796Z,0.52
2023-03-29T15:29:23.345Z,0.80
2023-03-29T15:30:49.473Z,0.40
2023-03-29T15:31:59.010Z,0.60
2023-03-29T15:33:15.184Z,0.70
2023-03-29T15:34:29.429Z,0.50
2023-03-29T15:35:31.327Z,0.65
2023-03-29T15:36:33.648Z,0.30
2023-03-29T15:37:36.169Z,0.52
2023-03-29T15:38:44.669Z,0.65
2023-03-29T15:39:48.149Z,0.60
2023-03-29T15:40:50.503Z,0.60